UUOO/VOZ METAR and TAF weather

Enter ICAO airport designator
Station Type Date Time Source
UUOO METAR 2019/08/21 22:00 UTC NOAA

UUOO 212200Z 00000MPS CAVOK 17/14 Q1021 R12/090070 NOSIG RMK QFE752


Station Type Date Time Source
UUOO Decoded METAR 2019/08/21 22:00 UTC NOAA

Station name not available
Aug 21, 2019 - 06:00 PM EDT / 2019.08.21 2200 UTC
Wind: Calm:0
Visibility: greater than 7 mile(s):0
Temperature: 62 F (17 C)
Dew Point: 57 F (14 C)
Relative Humidity: 82%
Pressure (altimeter): 30.15 in. Hg (1021 hPa)
ob: UUOO 212200Z 00000MPS CAVOK 17/14 Q1021 R12/090070 NOSIG RMK QFE752
cycle: 22

Station Type Date Time Source
UUOO TAF 2019/08/12 03:33 UTC NOAA

TAF COR TAF COR UUOO 120159 1203/1212 31003MPS CAVOK

Example: see airport list